Lake Odessa, Michigan
Current Conditions -  °F | °C
As of 4:33 PM on Sunday 23 Nov 2014 (Local Time) from KY70 Reporting Station
Light Rain Light Rain  
Wind Chill: 46°   Ceiling: 4400
Heat Index: 49°   Visibility: 10mi
Dew Point: 47°   Wind: 9mph
Humidity: 93%   Direction: 140°SE
Pressure: 29.59"   Gusts: NA
Location:  42.78°N, 85.14°W
Report Text: KY70 232133Z AUTO 14008KT 10SM -RA SCT027 BKN044 OVC085 10/09 A2959 RMK AO2 P0001 T00970086
Loading
Personal Weather Stations






























Interactive Weather Map New forecast layout! Learn more

10-Day Weather Forecast

Advertisements
Track Severe Weather on mobile